.
WxDataArchive / Data Records for 2010-07-02
2010-07-01 July 2010 2010-07-03

Data Records for Friday, 02 July 2010

Time	Temp	Chill	HIndex	Humid	Dewpt	 Wind 	HiWind	WindDir	Rain 	Barom 
-----	----	-----	------	-----	-----	------	------	-------	-----	----- 
00:00	58.1	58.1	58.1	73	49.5	0	0	---	0.00	30.298 
00:05	58.0	58.0	58.0	73	49.4	0	0	---	0.00	30.298 
00:10	57.8	57.8	57.8	73	49.2	0	0	---	0.00	30.298 
00:15	57.6	57.6	57.6	74	49.4	0	0	---	0.00	30.297 
00:20	57.5	57.5	57.5	75	49.6	0	0	---	0.00	30.297 
00:25	57.3	57.3	57.3	76	49.8	0	0	---	0.00	30.297 
00:30	57.2	57.2	57.2	77	50.1	0	0	---	0.00	30.300 
00:35	57.0	57.0	57.0	77	49.9	0	0	---	0.00	30.300 
00:40	56.9	56.9	56.9	78	50.1	0	0	---	0.00	30.300 
00:45	56.7	56.7	56.7	80	50.6	0	0	---	0.00	30.298 
00:50	56.6	56.6	56.6	80	50.5	0	0	---	0.00	30.298 
00:55	56.3	56.3	56.3	81	50.5	0	0	---	0.00	30.298 
01:00	56.2	56.2	56.2	81	50.4	0	0	---	0.00	30.298 
01:05	56.0	56.0	56.0	82	50.6	0	0	---	0.00	30.298 
01:10	55.9	55.9	55.9	82	50.5	0	0	---	0.00	30.298 
01:15	55.9	55.9	55.9	83	50.8	0	0	---	0.00	30.297 
01:20	55.7	55.7	55.7	84	50.9	0	0	---	0.00	30.297 
01:25	55.7	55.7	55.7	84	50.9	0	0	---	0.00	30.297 
01:30	55.6	55.6	55.6	85	51.2	0	0	---	0.00	30.296 
01:35	55.4	55.4	55.4	86	51.3	0	0	---	0.00	30.296 
01:40	55.4	55.4	55.4	86	51.3	0	0	---	0.00	30.296 
01:45	55.4	55.4	55.4	87	51.6	0	0	---	0.00	30.298 
01:50	55.6	55.6	55.6	88	52.1	0	0	---	0.00	30.298 
01:55	55.7	55.7	55.7	88	52.2	0	0	---	0.00	30.298 
02:00	56.0	56.0	56.0	88	52.5	0	0	---	0.00	30.308 
02:05	56.2	56.2	56.2	88	52.7	0	0	---	0.00	30.308 
02:10	56.3	56.3	56.3	87	52.5	0	0	---	0.00	30.308 
02:15	56.3	56.3	56.3	87	52.5	0	0	---	0.00	30.307 
02:20	56.5	56.5	56.5	86	52.4	0	0	---	0.00	30.307 
02:25	56.3	56.3	56.3	84	51.5	0	0	---	0.00	30.307 
02:30	56.3	56.3	56.3	83	51.2	0	0	---	0.00	30.308 
02:35	56.3	56.3	56.3	82	50.9	0	0	---	0.00	30.308 
02:40	56.3	56.3	56.3	82	50.9	0	0	---	0.00	30.308 
02:45	56.3	56.3	56.3	81	50.5	0	0	---	0.00	30.306 
02:50	56.2	56.2	56.2	81	50.4	0	0	---	0.00	30.306 
02:55	56.0	56.0	56.0	81	50.3	0	0	---	0.00	30.306 
03:00	56.0	56.0	56.0	81	50.3	0	0	---	0.00	30.306 
03:05	55.9	55.9	55.9	82	50.5	0	0	---	0.00	30.306 
03:10	55.7	55.7	55.7	82	50.3	0	0	---	0.00	30.306 
03:15	55.6	55.6	55.6	83	50.5	0	0	---	0.00	30.303 
03:20	55.4	55.4	55.4	83	50.3	0	0	---	0.00	30.303 
03:25	55.3	55.3	55.3	84	50.5	0	0	---	0.00	30.303 
03:30	55.1	55.1	55.1	84	50.4	0	0	---	0.00	30.303 
03:35	55.0	55.0	55.0	84	50.3	0	0	---	0.00	30.303 
03:40	54.8	54.8	54.8	85	50.4	0	0	---	0.00	30.303 
03:45	54.8	54.8	54.8	85	50.4	0	0	---	0.00	30.304 
03:50	54.8	54.8	54.8	86	50.7	0	0	---	0.00	30.304 
03:55	54.8	54.8	54.8	87	51.0	0	0	---	0.00	30.304 
04:00	55.0	55.0	55.0	87	51.2	0	0	---	0.00	30.307 
04:05	54.8	54.8	54.8	88	51.3	0	0	---	0.00	30.307 
04:10	54.8	54.8	54.8	88	51.3	0	0	---	0.00	30.307 
04:15	54.7	54.7	54.7	88	51.2	0	0	---	0.00	30.306 
04:20	54.5	54.5	54.5	88	51.0	0	0	---	0.00	30.306 
04:25	54.4	54.4	54.4	88	50.9	0	0	---	0.00	30.306 
04:30	54.2	54.2	54.2	88	50.7	0	0	---	0.00	30.309 
04:35	54.2	54.2	54.2	88	50.7	0	0	---	0.00	30.309 
04:40	54.1	54.1	54.1	88	50.6	0	0	---	0.00	30.309 
04:45	53.9	53.9	53.9	88	50.4	0	0	---	0.00	30.311 
04:50	53.9	53.9	53.9	88	50.4	0	0	---	0.00	30.311 
04:55	53.9	53.9	53.9	88	50.4	0	0	---	0.00	30.311 
05:00	53.8	53.8	53.8	89	50.6	0	0	---	0.00	30.311 
05:05	53.8	53.8	53.8	89	50.6	0	0	---	0.00	30.311 
05:10	53.6	53.6	53.6	89	50.4	0	0	---	0.00	30.311 
05:15	53.5	53.5	53.5	89	50.3	0	0	---	0.00	30.312 
05:20	53.5	53.5	53.5	89	50.3	0	0	---	0.00	30.312 
05:25	53.5	53.5	53.5	89	50.3	0	0	---	0.00	30.312 
05:30	53.3	53.3	53.3	90	50.4	0	0	---	0.00	30.314 
05:35	53.3	53.3	53.3	90	50.4	0	0	---	0.00	30.314 
05:40	53.3	53.3	53.3	91	50.7	0	0	---	0.00	30.314 
05:45	53.2	53.2	53.2	91	50.6	0	0	---	0.00	30.315 
05:50	53.2	53.2	53.2	91	50.6	0	0	---	0.00	30.315 
05:55	53.1	53.1	53.1	91	50.5	0	0	---	0.00	30.315 
06:00	53.1	53.1	53.1	91	50.5	0	0	---	0.00	30.319 
06:05	52.9	52.9	52.9	92	50.6	0	0	---	0.00	30.319 
06:10	52.9	52.9	52.9	92	50.6	0	0	---	0.00	30.319 
06:15	52.8	52.8	52.8	92	50.5	0	0	---	0.00	30.318 
06:20	52.8	52.8	52.8	92	50.5	0	0	---	0.00	30.318 
06:25	52.6	52.6	52.6	92	50.3	0	0	---	0.00	30.318 
06:30	52.6	52.6	52.6	92	50.3	0	0	---	0.00	30.319 
06:35	52.5	52.5	52.5	92	50.2	0	0	---	0.00	30.319 
06:40	52.6	52.6	52.6	92	50.3	0	0	---	0.00	30.319 
06:45	52.8	52.8	52.8	93	50.8	0	0	---	0.00	30.325 
06:50	52.9	52.9	52.9	93	50.9	0	0	---	0.00	30.325 
06:55	52.9	52.9	52.9	93	50.9	0	0	---	0.00	30.325 
07:00	53.1	53.1	53.1	93	51.1	0	0	---	0.00	30.327 
07:05	53.2	53.2	53.2	93	51.2	0	0	---	0.00	30.327 
07:10	53.5	53.5	53.5	93	51.5	0	0	---	0.00	30.327 
07:15	53.8	53.8	53.8	94	52.1	0	0	---	0.00	30.321 
07:20	54.2	54.2	54.2	94	52.5	0	0	---	0.00	30.321 
07:25	54.7	54.7	54.7	94	53.0	0	0	---	0.00	30.321 
07:30	55.4	55.4	55.4	94	53.7	0	0	---	0.00	30.323 
07:35	56.3	56.3	56.3	91	53.7	0	1	112	0.00	30.323 
07:40	57.5	57.5	57.5	84	52.7	0	1	112	0.00	30.323 
07:45	58.6	58.6	58.6	80	52.4	0	1	112	0.00	30.324 
07:50	59.5	59.5	59.5	76	51.9	0	2	112	0.00	30.324 
07:55	60.5	60.5	60.5	74	52.2	0	1	112	0.00	30.324 
08:00	61.6	61.6	61.6	72	52.5	0	1	22	0.00	30.323 
08:05	62.4	62.4	62.4	69	52.1	0	3	22	0.00	30.323 
08:10	62.9	62.9	62.9	68	52.2	1	2	22	0.00	30.323 
08:15	63.1	63.1	63.1	69	52.8	1	3	22	0.00	30.327 
08:20	63.7	63.7	63.7	68	52.9	0	0	---	0.00	30.327 
08:25	64.5	64.5	64.5	63	51.6	0	0	---	0.00	30.327 
08:30	65.3	65.3	65.3	61	51.5	0	0	---	0.00	30.325 
08:35	66.1	66.1	66.1	60	51.8	0	0	---	0.00	30.325 
08:40	66.6	66.6	66.6	58	51.4	0	2	248	0.00	30.325 
08:45	67.1	67.1	67.1	58	51.8	0	2	225	0.00	30.321 
08:50	67.4	67.4	67.4	59	52.6	0	2	225	0.00	30.321 
08:55	67.6	67.6	67.6	58	52.3	1	3	112	0.00	30.321 
09:00	67.6	67.6	67.6	58	52.3	0	3	112	0.00	30.320 
09:05	67.9	67.9	67.9	55	51.1	0	1	112	0.00	30.320 
09:10	68.6	68.6	68.6	54	51.3	0	5	68	0.00	30.320 
09:15	68.9	68.9	68.9	51	50.0	1	3	90	0.00	30.326 
09:20	69.1	69.1	69.1	52	50.7	1	4	68	0.00	30.326 
09:25	69.1	69.1	69.1	50	49.7	1	3	68	0.00	30.326 
09:30	69.1	69.1	69.1	49	49.1	1	3	112	0.00	30.326 
09:35	69.3	69.3	69.3	50	49.8	1	2	112	0.00	30.326 
09:40	69.8	69.8	69.8	50	50.3	1	3	135	0.00	30.326 
09:45	70.3	70.3	70.3	52	51.8	0	1	68	0.00	30.324 
09:50	70.9	70.9	70.9	48	50.2	1	3	112	0.00	30.324 
09:55	71.1	71.1	71.1	49	51.0	1	3	68	0.00	30.324 
10:00	71.6	71.6	71.6	48	50.9	0	3	112	0.00	30.322 
10:05	71.8	71.8	71.8	47	50.5	1	4	112	0.00	30.322 
10:10	71.8	71.8	71.8	46	49.9	1	4	270	0.00	30.322 
10:15	72.0	72.0	72.0	47	50.7	1	4	112	0.00	30.325 
10:20	72.1	72.1	72.1	46	50.2	1	4	112	0.00	30.325 
10:25	72.7	72.7	72.7	45	50.1	1	4	112	0.00	30.325 
10:30	73.2	73.2	73.2	46	51.2	0	2	292	0.00	30.324 
10:35	73.2	73.2	73.2	45	50.6	1	3	292	0.00	30.324 
10:40	73.5	73.5	73.5	46	51.4	0	1	112	0.00	30.324 
10:45	73.9	73.9	73.9	46	51.8	0	2	112	0.00	30.322 
10:50	74.0	74.0	74.0	43	50.1	1	5	112	0.00	30.322 
10:55	74.0	74.0	74.0	39	47.5	1	3	112	0.00	30.322 
11:00	74.0	74.0	74.0	40	48.1	1	4	68	0.00	30.321 
11:05	74.0	74.0	74.0	42	49.4	1	5	68	0.00	30.321 
11:10	74.4	74.4	74.4	41	49.1	1	3	90	0.00	30.321 
11:15	74.7	74.7	74.7	38	47.4	1	3	90	0.00	30.324 
11:20	74.6	74.6	74.6	39	48.0	1	5	90	0.00	30.324 
11:25	74.6	74.6	74.6	40	48.7	1	5	90	0.00	30.324 
11:30	74.6	74.6	74.6	38	47.3	1	3	90	0.00	30.324 
11:35	74.7	74.7	74.7	40	48.8	1	3	90	0.00	30.324 
11:40	75.1	75.1	77.5	40	49.1	0	2	135	0.00	30.324 
11:45	75.6	75.6	77.7	40	49.6	1	3	135	0.00	30.321 
11:50	75.6	75.6	77.6	39	48.9	0	2	22	0.00	30.321 
11:55	75.4	75.4	77.6	40	49.4	1	3	315	0.00	30.321 
12:00	75.3	75.3	77.6	40	49.3	3	6	90	0.00	30.314 
12:05	74.7	74.7	74.7	44	51.3	2	6	90	0.00	30.314 
12:10	75.1	75.1	77.6	41	49.8	1	5	90	0.00	30.314 
12:15	75.6	75.6	77.6	39	48.9	2	5	112	0.00	30.312 
12:20	76.0	76.0	77.8	39	49.2	1	3	112	0.00	30.312 
12:25	76.1	76.1	77.7	37	47.9	2	4	68	0.00	30.312 
12:30	76.3	76.3	77.9	39	49.5	0	2	68	0.00	30.309 
12:35	76.7	76.7	78.0	38	49.2	1	2	68	0.00	30.309 
12:40	76.8	76.8	77.9	35	47.1	1	3	90	0.00	30.309 
12:45	76.8	76.8	77.9	35	47.1	1	3	45	0.00	30.306 
12:50	76.8	76.8	77.9	35	47.1	1	3	292	0.00	30.306 
12:55	76.7	76.7	78.0	38	49.2	2	5	90	0.00	30.306 
13:00	76.8	76.8	78.0	37	48.5	0	2	90	0.00	30.301 
13:05	77.2	77.2	78.1	35	47.4	1	3	112	0.00	30.301 
13:10	77.2	77.2	78.1	36	48.2	1	7	112	0.00	30.301 
13:15	77.2	77.2	78.2	37	48.9	1	7	90	0.00	30.295 
13:20	77.6	77.6	78.2	35	47.8	1	2	90	0.00	30.295 
13:25	78.1	78.1	78.6	37	49.7	1	3	45	0.00	30.295 
13:30	77.9	77.9	78.4	35	48.0	2	6	90	0.00	30.291 
13:35	77.7	77.7	78.4	37	49.3	1	4	90	0.00	30.291 
13:40	77.4	77.4	78.3	38	49.8	2	6	68	0.00	30.291 
13:45	77.6	77.6	78.3	36	48.5	1	3	68	0.00	30.282 
13:50	77.7	77.7	78.3	35	47.8	1	5	68	0.00	30.282 
13:55	77.6	77.6	78.3	36	48.5	2	4	90	0.00	30.282 
14:00	77.7	77.7	78.3	36	48.6	2	4	90	0.00	30.278 
14:05	77.9	77.9	78.4	35	48.0	1	3	90	0.00	30.278 
14:10	78.1	78.1	78.3	32	45.8	2	5	112	0.00	30.278 
14:15	77.9	77.9	78.4	35	48.0	2	5	112	0.00	30.275 
14:20	78.3	78.3	78.6	36	49.1	1	4	90	0.00	30.275 
14:25	78.5	78.5	78.7	36	49.3	1	3	270	0.00	30.275 
14:30	79.0	79.0	79.0	35	49.0	1	3	90	0.00	30.272 
14:35	79.2	79.2	78.9	32	46.8	2	5	90	0.00	30.272 
14:40	79.4	79.4	79.2	35	49.3	1	5	90	0.00	30.272 
14:45	79.2	79.2	79.1	35	49.2	2	6	90	0.00	30.264 
14:50	79.2	79.2	78.9	33	47.6	1	3	90	0.00	30.264 
14:55	79.4	79.4	78.9	31	46.1	1	3	90	0.00	30.264 
15:00	79.6	79.6	79.3	35	49.5	0	2	45	0.00	30.258 
15:05	79.9	79.9	79.4	34	49.0	1	3	112	0.00	30.258 
15:10	80.1	80.1	79.6	35	50.0	1	4	112	0.00	30.258 
15:15	80.5	80.5	79.6	31	47.1	0	3	158	0.00	30.250 
15:20	80.1	80.1	79.2	30	45.8	1	2	248	0.00	30.250 
15:25	80.1	80.1	79.4	32	47.6	1	4	90	0.00	30.250 
15:30	80.1	80.1	79.4	32	47.6	2	4	90	0.00	30.246 
15:35	80.3	80.3	79.5	32	47.7	0	3	90	0.00	30.246 
15:40	80.5	80.5	79.6	32	47.9	1	3	248	0.00	30.246 
15:45	80.1	80.1	79.5	34	49.2	2	6	112	0.00	30.243 
15:50	79.9	79.9	79.3	33	48.2	1	3	112	0.00	30.243 
15:55	80.3	80.3	79.5	32	47.7	1	3	248	0.00	30.243 
16:00	80.9	80.9	80.2	36	51.4	0	4	292	0.00	30.238 
16:05	81.2	81.2	80.5	37	52.4	1	3	22	0.00	30.238 
16:10	81.2	81.2	80.0	31	47.7	1	4	45	0.00	30.238 
16:15	81.2	81.2	79.9	30	46.8	1	5	112	0.00	30.234 
16:20	81.6	81.6	80.7	36	52.0	0	2	112	0.00	30.234 
16:25	81.6	81.6	80.3	31	48.0	1	4	112	0.00	30.234 
16:30	81.6	81.6	80.2	30	47.1	1	2	112	0.00	30.228 
16:35	81.2	81.2	80.0	31	47.7	2	7	90	0.00	30.228 
16:40	81.1	81.1	79.9	31	47.6	1	3	90	0.00	30.228 
16:45	80.9	80.9	79.9	32	48.2	1	3	90	0.00	30.227 
16:50	80.5	80.5	79.5	30	46.2	2	4	90	0.00	30.227 
16:55	80.5	80.5	79.5	30	46.2	1	3	90	0.00	30.227 
17:00	80.7	80.7	79.7	31	47.2	1	3	68	0.00	30.222 
17:05	81.2	81.2	80.0	31	47.7	0	2	68	0.00	30.222 
17:10	81.4	81.4	80.1	30	47.0	1	3	112	0.00	30.222 
17:15	81.6	81.6	80.2	30	47.1	1	3	45	0.00	30.215 
17:20	81.6	81.6	80.1	29	46.2	1	3	90	0.00	30.215 
17:25	81.6	81.6	80.3	31	48.0	0	1	90	0.00	30.215 
17:30	81.6	81.6	80.2	30	47.1	0	2	270	0.00	30.213 
17:35	81.6	81.6	80.2	30	47.1	1	3	68	0.00	30.213 
17:40	81.2	81.2	79.8	28	45.0	1	3	112	0.00	30.213 
17:45	81.1	81.1	79.8	29	45.8	1	4	112	0.00	30.209 
17:50	80.9	80.9	79.6	28	44.7	1	3	135	0.00	30.209 
17:55	80.9	80.9	79.7	30	46.5	0	3	135	0.00	30.209 
18:00	80.9	80.9	79.7	30	46.5	1	3	135	0.00	30.198 
18:05	80.7	80.7	79.7	31	47.2	1	3	135	0.00	30.198 
18:10	80.3	80.3	79.4	31	46.9	1	5	112	0.00	30.198 
18:15	79.9	79.9	79.2	31	46.5	1	4	112	0.00	30.195 
18:20	79.6	79.6	79.0	31	46.3	1	4	68	0.00	30.195 
18:25	79.4	79.4	78.9	31	46.1	1	3	68	0.00	30.195 
18:30	79.0	79.0	78.8	32	46.6	1	3	68	0.00	30.197 
18:35	78.8	78.8	78.6	31	45.6	1	2	68	0.00	30.197 
18:40	78.8	78.8	78.5	29	43.8	1	3	68	0.00	30.197 
18:45	78.6	78.6	78.5	32	46.3	1	4	90	0.00	30.189 
18:50	78.6	78.6	78.5	32	46.3	0	2	90	0.00	30.189 
18:55	78.5	78.5	78.4	31	45.3	1	3	90	0.00	30.189 
19:00	78.3	78.3	78.5	33	46.8	0	2	90	0.00	30.190 
19:05	78.1	78.1	78.3	32	45.8	0	3	90	0.00	30.190 
19:10	78.1	78.1	78.5	35	48.2	0	2	90	0.00	30.190 
19:15	78.1	78.1	78.5	35	48.2	0	3	90	0.00	30.181 
19:20	77.9	77.9	78.4	35	48.0	0	1	90	0.00	30.181 
19:25	77.9	77.9	78.3	34	47.2	1	2	90	0.00	30.181 
19:30	77.7	77.7	78.2	34	47.1	0	2	112	0.00	30.179 
19:35	77.6	77.6	78.2	34	47.0	1	3	112	0.00	30.179 
19:40	77.4	77.4	78.1	35	47.6	0	2	112	0.00	30.179 
19:45	77.2	77.2	78.1	36	48.2	0	1	112	0.00	30.179 
19:50	77.2	77.2	78.1	36	48.2	0	1	112	0.00	30.179 
19:55	77.2	77.2	78.2	37	48.9	0	1	112	0.00	30.179 
20:00	77.0	77.0	78.0	36	48.0	0	4	112	0.00	30.178 
20:05	77.0	77.0	78.2	39	50.1	0	2	90	0.00	30.178 
20:10	76.7	76.7	78.1	39	49.9	0	3	90	0.00	30.178 
20:15	76.5	76.5	77.9	37	48.3	0	1	90	0.00	30.171 
20:20	76.5	76.5	78.0	39	49.7	0	1	90	0.00	30.171 
20:25	76.1	76.1	77.8	38	48.6	0	1	90	0.00	30.171 
20:30	76.0	76.0	77.8	39	49.2	0	2	90	0.00	30.167 
20:35	75.8	75.8	77.8	41	50.4	0	0	---	0.00	30.167 
20:40	75.6	75.6	77.7	42	50.9	0	0	---	0.00	30.167 
20:45	75.3	75.3	77.7	43	51.2	0	0	---	0.00	30.163 
20:50	74.9	74.9	74.9	44	51.5	0	0	---	0.00	30.163 
20:55	74.4	74.4	74.4	45	51.7	0	0	---	0.00	30.163 
21:00	73.9	73.9	73.9	46	51.8	0	0	---	0.00	30.159 
21:05	73.3	73.3	73.3	47	51.8	0	0	---	0.00	30.159 
21:10	72.8	72.8	72.8	48	52.0	0	0	---	0.00	30.159 
21:15	72.3	72.3	72.3	49	52.1	0	0	---	0.00	30.157 
21:20	71.8	71.8	71.8	51	52.7	0	0	---	0.00	30.157 
21:25	71.1	71.1	71.1	50	51.5	0	0	---	0.00	30.157 
21:30	70.6	70.6	70.6	50	51.0	0	0	---	0.00	30.160 
21:35	70.1	70.1	70.1	52	51.6	0	0	---	0.00	30.160 
21:40	69.6	69.6	69.6	54	52.2	0	0	---	0.00	30.160 
21:45	69.1	69.1	69.1	54	51.7	0	0	---	0.00	30.166 
21:50	68.6	68.6	68.6	54	51.3	0	0	---	0.00	30.166 
21:55	68.3	68.3	68.3	55	51.5	0	0	---	0.00	30.166 
22:00	67.9	67.9	67.9	56	51.6	0	0	---	0.00	30.167 
22:05	67.4	67.4	67.4	57	51.6	0	0	---	0.00	30.167 
22:10	67.1	67.1	67.1	59	52.3	0	0	---	0.00	30.167 
22:15	66.6	66.6	66.6	59	51.8	0	0	---	0.00	30.163 
22:20	66.3	66.3	66.3	61	52.4	0	0	---	0.00	30.163 
22:25	65.8	65.8	65.8	63	52.8	0	0	---	0.00	30.163 
22:30	65.5	65.5	65.5	64	53.0	0	0	---	0.00	30.167 
22:35	65.2	65.2	65.2	64	52.7	0	0	---	0.00	30.167 
22:40	64.8	64.8	64.8	64	52.3	0	0	---	0.00	30.167 
22:45	64.5	64.5	64.5	65	52.5	0	0	---	0.00	30.167 
22:50	64.3	64.3	64.3	66	52.7	0	0	---	0.00	30.167 
22:55	64.0	64.0	64.0	67	52.8	0	0	---	0.00	30.167 
23:00	63.7	63.7	63.7	69	53.3	0	0	---	0.00	30.166 
23:05	63.4	63.4	63.4	70	53.4	0	0	---	0.00	30.166 
23:10	63.2	63.2	63.2	71	53.6	0	0	---	0.00	30.166 
23:15	62.9	62.9	62.9	72	53.7	0	0	---	0.00	30.165 
23:20	62.6	62.6	62.6	73	53.8	0	0	---	0.00	30.165 
23:25	62.4	62.4	62.4	74	54.0	0	0	---	0.00	30.165 
23:30	62.3	62.3	62.3	75	54.3	0	0	---	0.00	30.166 
23:35	62.0	62.0	62.0	76	54.3	0	0	---	0.00	30.166 
23:40	61.8	61.8	61.8	77	54.5	0	0	---	0.00	30.166 
23:45	61.5	61.5	61.5	77	54.2	0	0	---	0.00	30.165 
23:50	61.3	61.3	61.3	78	54.4	0	0	---	0.00	30.165 
23:55	61.2	61.2	61.2	78	54.3	0	0	---	0.00	30.165 

CoCoRaHS
IN-AL-39
A2 Web Hosting
Creative Commons License
GoDaddy
search engine by freefind advanced

loaded 2018-11-20 14:35:03 • last modified 2010-11-18 10:43:29
Privacy PolicyDisclaimer
• wx.awcolley.com is powered by PmWiki v.2002016 •
• all content (unless otherwise noted) © 2018 A W Colley